createdAt,value
2022-09-09T00:02:03.271Z,66.80
2022-09-09T00:04:32.179Z,66.80
2022-09-09T00:07:12.026Z,66.80
2022-09-09T00:09:42.958Z,66.90
2022-09-09T00:12:13.582Z,66.90
2022-09-09T00:14:45.600Z,66.90
2022-09-09T00:17:16.799Z,66.90
2022-09-09T00:19:51.369Z,66.80
2022-09-09T00:22:21.732Z,66.80
2022-09-09T00:24:51.347Z,66.90
2022-09-09T00:27:24.704Z,66.90
2022-09-09T00:29:55.551Z,66.90
2022-09-09T00:32:23.670Z,67.00
2022-09-09T00:34:53.165Z,67.00
2022-09-09T00:37:23.200Z,67.00
2022-09-09T00:39:53.142Z,67.00
2022-09-09T00:42:22.414Z,67.00
2022-09-09T00:45:00.855Z,67.00
2022-09-09T00:47:43.492Z,67.00
2022-09-09T00:50:19.557Z,67.00
2022-09-09T00:52:50.619Z,67.10
2022-09-09T00:55:19.871Z,67.10
2022-09-09T00:57:48.225Z,67.00
2022-09-09T01:00:24.360Z,67.10
2022-09-09T01:02:59.244Z,67.10
2022-09-09T01:05:32.763Z,67.10
2022-09-09T01:08:03.051Z,67.00
2022-09-09T01:10:36.258Z,67.00
2022-09-09T01:13:06.955Z,67.00
2022-09-09T01:15:35.041Z,67.00
2022-09-09T01:18:06.734Z,67.00
2022-09-09T01:20:40.904Z,67.00
2022-09-09T01:23:21.426Z,67.00
2022-09-09T01:26:22.973Z,67.00
2022-09-09T01:28:53.580Z,67.00
2022-09-09T01:31:26.608Z,67.00
2022-09-09T01:33:54.633Z,67.00
2022-09-09T01:36:31.982Z,67.00
2022-09-09T01:39:00.021Z,66.90
2022-09-09T01:41:30.441Z,66.90
2022-09-09T01:44:07.510Z,66.90
2022-09-09T01:46:37.232Z,67.00
2022-09-09T01:49:07.281Z,67.00
2022-09-09T01:51:35.367Z,67.10
2022-09-09T01:54:06.933Z,67.10
2022-09-09T01:56:42.953Z,67.00
2022-09-09T01:59:20.343Z,67.00
2022-09-09T02:02:04.000Z,66.90
2022-09-09T02:04:38.726Z,66.90
2022-09-09T02:07:32.909Z,67.00
2022-09-09T02:10:04.722Z,66.90
2022-09-09T02:12:34.267Z,66.90
2022-09-09T02:15:05.973Z,66.80
2022-09-09T02:17:44.312Z,66.90
2022-09-09T02:20:16.446Z,66.90
2022-09-09T02:22:50.416Z,66.80
2022-09-09T02:25:21.299Z,66.80
2022-09-09T02:27:52.940Z,66.80
2022-09-09T02:30:21.700Z,66.70
2022-09-09T02:32:58.920Z,66.70
2022-09-09T02:35:40.788Z,66.80
2022-09-09T02:38:10.345Z,66.80
2022-09-09T02:40:39.149Z,66.90
2022-09-09T02:43:08.622Z,66.90
2022-09-09T02:45:41.283Z,66.90
2022-09-09T02:48:12.339Z,67.90
2022-09-09T02:50:44.837Z,66.90
2022-09-09T02:53:16.022Z,66.90
2022-09-09T02:55:47.857Z,66.90
2022-09-09T02:58:19.769Z,66.90
2022-09-09T03:00:58.388Z,66.80
2022-09-09T03:03:28.110Z,66.80
2022-09-09T03:05:57.878Z,66.80
2022-09-09T03:08:28.668Z,66.80
2022-09-09T03:10:59.896Z,66.80
2022-09-09T03:13:31.258Z,66.80
2022-09-09T03:15:59.821Z,66.80
2022-09-09T03:18:29.643Z,66.80
2022-09-09T03:20:58.590Z,66.80
2022-09-09T03:23:26.663Z,66.80
2022-09-09T03:25:57.833Z,66.80
2022-09-09T03:28:34.203Z,67.80
2022-09-09T03:31:04.253Z,66.80
2022-09-09T03:33:38.051Z,66.80
2022-09-09T03:36:08.449Z,66.70
2022-09-09T03:38:37.168Z,66.80
2022-09-09T03:41:08.706Z,66.80
2022-09-09T03:43:38.639Z,66.80
2022-09-09T03:46:07.123Z,66.80
2022-09-09T03:48:35.419Z,66.80
2022-09-09T03:51:05.290Z,66.80
2022-09-09T03:53:35.305Z,66.90
2022-09-09T03:56:04.737Z,66.90
2022-09-09T03:58:33.280Z,66.90
2022-09-09T04:01:09.605Z,66.90
2022-09-09T04:03:38.739Z,66.90
2022-09-09T04:06:08.758Z,66.90
2022-09-09T04:08:37.230Z,66.90
2022-09-09T04:11:07.174Z,67.00
2022-09-09T04:13:36.408Z,67.00
2022-09-09T04:16:05.261Z,66.90
2022-09-09T04:18:36.867Z,66.90
2022-09-09T04:21:07.032Z,67.00
2022-09-09T04:23:35.896Z,67.00
2022-09-09T04:26:04.962Z,66.90
2022-09-09T04:28:35.414Z,66.90
2022-09-09T04:31:08.718Z,66.90
2022-09-09T04:33:40.500Z,66.90
2022-09-09T04:36:10.040Z,66.90
2022-09-09T04:38:38.853Z,66.80
2022-09-09T04:41:07.201Z,66.80
2022-09-09T04:43:36.614Z,66.90
2022-09-09T04:46:06.801Z,66.80
2022-09-09T04:48:35.381Z,66.80
2022-09-09T04:51:07.842Z,66.80
2022-09-09T04:53:36.735Z,66.80
2022-09-09T04:56:05.880Z,66.80
2022-09-09T04:58:38.183Z,66.80
2022-09-09T05:01:08.581Z,66.80
2022-09-09T05:03:38.518Z,66.80
2022-09-09T05:06:11.773Z,66.80
2022-09-09T05:08:40.305Z,66.90
2022-09-09T05:11:16.525Z,66.80
2022-09-09T05:13:45.099Z,66.90
2022-09-09T05:16:13.931Z,66.70
2022-09-09T05:18:43.575Z,66.90
2022-09-09T05:21:13.135Z,66.90
2022-09-09T05:23:41.256Z,66.70
2022-09-09T05:26:14.368Z,66.70
2022-09-09T05:28:45.434Z,66.70
2022-09-09T05:31:14.159Z,66.80
2022-09-09T05:33:44.129Z,67.80
2022-09-09T05:36:15.131Z,66.80
2022-09-09T05:38:43.953Z,66.70
2022-09-09T05:41:12.440Z,66.70
2022-09-09T05:43:40.593Z,66.70
2022-09-09T05:46:09.474Z,66.70
2022-09-09T05:48:38.607Z,66.70
2022-09-09T05:51:08.089Z,66.60
2022-09-09T05:53:37.926Z,66.50
2022-09-09T05:56:06.934Z,66.60
2022-09-09T05:58:36.751Z,66.70
2022-09-09T06:01:08.948Z,66.60
2022-09-09T06:03:37.792Z,66.80
2022-09-09T06:06:07.710Z,66.70
2022-09-09T06:08:39.386Z,66.70
2022-09-09T06:11:08.692Z,66.60
2022-09-09T06:13:38.465Z,66.50
2022-09-09T06:16:08.254Z,66.50
2022-09-09T06:18:36.578Z,66.50
2022-09-09T06:21:06.181Z,66.50
2022-09-09T06:23:35.593Z,66.40
2022-09-09T06:26:10.126Z,66.40
2022-09-09T06:28:38.709Z,66.40
2022-09-09T06:31:08.180Z,66.40
2022-09-09T06:33:37.643Z,66.30
2022-09-09T06:36:06.105Z,66.30
2022-09-09T06:38:34.396Z,66.30
2022-09-09T06:41:02.778Z,66.20
2022-09-09T06:43:32.585Z,66.20
2022-09-09T06:46:03.786Z,66.10
2022-09-09T06:48:34.019Z,66.10
2022-09-09T06:51:03.932Z,66.10
2022-09-09T06:53:34.531Z,66.10
2022-09-09T06:56:03.253Z,66.10
2022-09-09T06:58:33.686Z,66.10
2022-09-09T07:01:06.215Z,66.00
2022-09-09T07:03:36.029Z,66.10
2022-09-09T07:06:05.154Z,66.00
2022-09-09T07:08:33.507Z,66.00
2022-09-09T07:11:09.052Z,66.00
2022-09-09T07:13:41.160Z,65.90
2022-09-09T07:16:10.725Z,66.00
2022-09-09T07:18:38.868Z,66.00
2022-09-09T07:21:07.784Z,65.90
2022-09-09T07:23:36.605Z,66.00
2022-09-09T07:26:10.371Z,66.00
2022-09-09T07:28:40.221Z,66.00
2022-09-09T07:31:08.553Z,65.80
2022-09-09T07:33:37.196Z,65.70
2022-09-09T07:36:07.683Z,65.60
2022-09-09T07:38:40.526Z,65.60
2022-09-09T07:41:12.628Z,65.60
2022-09-09T07:43:42.416Z,65.50
2022-09-09T07:46:11.193Z,65.50
2022-09-09T07:48:39.734Z,65.40
2022-09-09T07:51:12.691Z,65.40
2022-09-09T07:53:41.268Z,65.30
2022-09-09T07:56:10.807Z,65.30
2022-09-09T07:58:39.487Z,65.20
2022-09-09T08:01:11.012Z,65.20
2022-09-09T08:03:39.284Z,65.40
2022-09-09T08:06:08.994Z,65.30
2022-09-09T08:08:37.229Z,65.50
2022-09-09T08:11:08.417Z,65.20
2022-09-09T08:13:37.006Z,65.40
2022-09-09T08:16:07.855Z,65.30
2022-09-09T08:18:37.385Z,66.30
2022-09-09T08:21:13.671Z,65.40
2022-09-09T08:23:43.131Z,65.40
2022-09-09T08:26:13.067Z,65.40
2022-09-09T08:28:41.608Z,65.40
2022-09-09T08:31:11.757Z,65.30
2022-09-09T08:33:42.188Z,65.30
2022-09-09T08:36:12.983Z,65.20
2022-09-09T08:38:41.108Z,65.20
2022-09-09T08:41:34.509Z,65.20
2022-09-09T08:44:04.761Z,65.50
2022-09-09T08:46:35.957Z,65.60
2022-09-09T08:49:08.122Z,65.40
2022-09-09T08:51:36.207Z,65.30
2022-09-09T08:54:04.724Z,65.20
2022-09-09T08:56:34.732Z,65.20
2022-09-09T08:59:05.033Z,65.20
2022-09-09T09:01:44.046Z,65.10
2022-09-09T09:04:37.716Z,65.10
2022-09-09T09:07:10.949Z,65.10
2022-09-09T09:09:44.638Z,65.10
2022-09-09T09:12:17.452Z,65.00
2022-09-09T09:14:46.026Z,65.00
2022-09-09T09:17:16.112Z,64.90
2022-09-09T09:19:47.456Z,64.90
2022-09-09T09:22:18.911Z,64.70
2022-09-09T09:24:53.462Z,64.70
2022-09-09T09:27:29.631Z,64.80
2022-09-09T09:30:21.444Z,64.70
2022-09-09T09:32:55.167Z,64.60
2022-09-09T09:35:25.072Z,64.50
2022-09-09T09:40:51.106Z,64.40
2022-09-09T09:43:22.213Z,64.30
2022-09-09T09:46:07.294Z,64.30
2022-09-09T09:48:39.269Z,64.20
2022-09-09T09:51:11.456Z,64.10
2022-09-09T09:53:40.973Z,64.10
2022-09-09T09:56:13.630Z,64.00
2022-09-09T09:58:51.872Z,64.00
2022-09-09T10:01:25.332Z,64.00
2022-09-09T10:03:53.866Z,63.90
2022-09-09T10:06:34.155Z,63.80
2022-09-09T10:09:03.256Z,63.80
2022-09-09T10:11:43.618Z,63.80
2022-09-09T10:14:18.415Z,63.80
2022-09-09T10:16:54.216Z,63.70
2022-09-09T10:19:26.748Z,63.60
2022-09-09T10:22:13.071Z,63.60
2022-09-09T10:25:17.405Z,63.60
2022-09-09T10:27:55.513Z,63.60
2022-09-09T10:30:26.624Z,63.40
2022-09-09T10:32:58.065Z,63.50
2022-09-09T10:35:34.259Z,63.40
2022-09-09T10:38:13.280Z,63.40
2022-09-09T10:40:45.507Z,63.40
2022-09-09T10:43:18.946Z,63.40
2022-09-09T10:45:52.782Z,63.30
2022-09-09T10:48:36.361Z,63.30
2022-09-09T10:51:15.581Z,63.20
2022-09-09T10:53:50.508Z,63.20
2022-09-09T10:56:19.573Z,63.20
2022-09-09T10:58:50.622Z,63.10
2022-09-09T11:01:21.007Z,63.10
2022-09-09T11:03:51.540Z,63.10
2022-09-09T11:06:21.052Z,63.10
2022-09-09T11:08:52.711Z,63.10
2022-09-09T11:11:27.286Z,63.00
2022-09-09T11:13:57.714Z,63.00
2022-09-09T11:16:28.379Z,63.00
2022-09-09T11:18:59.529Z,63.00
2022-09-09T11:21:29.456Z,63.00
2022-09-09T11:24:00.044Z,63.00
2022-09-09T11:26:32.497Z,63.00
2022-09-09T11:29:16.849Z,63.00
2022-09-09T11:31:47.530Z,63.00
2022-09-09T11:34:21.617Z,63.00
2022-09-09T11:37:03.281Z,63.00
2022-09-09T11:39:53.940Z,63.00
2022-09-09T11:42:23.254Z,63.00
2022-09-09T11:44:51.357Z,63.00
2022-09-09T11:47:24.595Z,62.90
2022-09-09T11:49:52.735Z,62.90
2022-09-09T11:52:26.596Z,62.90
2022-09-09T11:54:57.274Z,62.90
2022-09-09T11:57:29.579Z,62.90
2022-09-09T11:59:57.623Z,62.90
2022-09-09T12:02:26.079Z,62.90
2022-09-09T12:04:59.020Z,62.80
2022-09-09T12:07:34.258Z,62.80
2022-09-09T12:10:05.780Z,62.80
2022-09-09T12:12:34.691Z,62.80
2022-09-09T12:15:23.967Z,62.80
2022-09-09T12:17:52.751Z,62.70
2022-09-09T12:20:22.039Z,62.70
2022-09-09T12:23:01.957Z,62.70
2022-09-09T12:25:35.928Z,62.80
2022-09-09T12:28:08.628Z,62.70
2022-09-09T12:30:39.212Z,62.70
2022-09-09T12:33:12.633Z,62.70
2022-09-09T12:35:40.951Z,62.70
2022-09-09T12:38:12.304Z,63.60
2022-09-09T12:40:42.576Z,62.70
2022-09-09T12:43:20.671Z,62.60
2022-09-09T12:45:50.933Z,62.70
2022-09-09T12:48:19.868Z,62.60
2022-09-09T12:50:48.781Z,62.70
2022-09-09T12:53:21.179Z,62.60
2022-09-09T12:55:55.113Z,62.70
2022-09-09T12:58:23.220Z,62.70
2022-09-09T13:00:53.119Z,62.60
2022-09-09T13:03:22.811Z,62.60
2022-09-09T13:05:51.012Z,62.60
2022-09-09T13:08:20.790Z,62.60
2022-09-09T13:10:53.822Z,62.60
2022-09-09T13:13:26.054Z,62.60
2022-09-09T13:15:56.074Z,62.60
2022-09-09T13:18:25.636Z,62.70
2022-09-09T13:20:53.725Z,62.70
2022-09-09T13:23:22.208Z,62.60
2022-09-09T13:25:56.855Z,62.60
2022-09-09T13:28:27.518Z,62.60
2022-09-09T13:31:03.593Z,62.80
2022-09-09T13:33:34.290Z,62.90
2022-09-09T13:36:04.864Z,62.90
2022-09-09T13:38:35.253Z,63.10
2022-09-09T13:41:05.508Z,63.10
2022-09-09T13:43:37.126Z,63.10
2022-09-09T13:46:07.220Z,63.20
2022-09-09T13:48:35.352Z,63.20
2022-09-09T13:51:05.559Z,63.20
2022-09-09T13:53:34.074Z,63.20
2022-09-09T13:56:02.437Z,63.20
2022-09-09T13:58:30.960Z,63.20
2022-09-09T14:01:00.405Z,63.10
2022-09-09T14:03:28.574Z,63.10
2022-09-09T14:06:02.377Z,63.10
2022-09-09T14:08:38.086Z,63.10
2022-09-09T14:11:06.499Z,63.00
2022-09-09T14:13:34.666Z,62.90
2022-09-09T14:16:04.441Z,62.90
2022-09-09T14:18:32.492Z,62.90
2022-09-09T14:21:00.597Z,62.90
2022-09-09T14:23:28.750Z,62.90
2022-09-09T14:25:56.796Z,62.90
2022-09-09T14:28:39.414Z,62.80
2022-09-09T14:31:14.884Z,62.80
2022-09-09T14:33:43.035Z,62.80
2022-09-09T14:36:11.276Z,62.80
2022-09-09T14:38:40.664Z,62.80
2022-09-09T14:41:08.816Z,62.90
2022-09-09T14:43:37.023Z,62.80
2022-09-09T14:46:07.797Z,62.80
2022-09-09T14:48:37.492Z,62.80
2022-09-09T14:51:09.721Z,62.80
2022-09-09T14:53:38.491Z,62.80
2022-09-09T14:56:08.387Z,62.60
2022-09-09T14:58:36.933Z,62.70
2022-09-09T15:01:06.456Z,62.70
2022-09-09T15:03:35.464Z,62.80
2022-09-09T15:06:10.293Z,62.70
2022-09-09T15:08:42.266Z,62.70
2022-09-09T15:11:11.190Z,62.70
2022-09-09T15:13:40.284Z,62.60
2022-09-09T15:16:09.021Z,62.70
2022-09-09T15:18:37.306Z,62.80
2022-09-09T15:21:05.957Z,62.60
2022-09-09T15:23:35.471Z,62.60
2022-09-09T15:26:03.878Z,62.60
2022-09-09T15:28:32.983Z,62.60
2022-09-09T15:31:01.124Z,62.80
2022-09-09T15:33:29.981Z,62.70
2022-09-09T15:35:58.177Z,62.80
2022-09-09T15:38:26.367Z,62.80
2022-09-09T15:40:58.029Z,62.60
2022-09-09T15:43:26.115Z,62.60
2022-09-09T15:45:56.364Z,62.60
2022-09-09T15:48:24.885Z,62.60
2022-09-09T15:50:55.716Z,62.70
2022-09-09T15:53:23.947Z,62.70
2022-09-09T15:55:54.799Z,62.70
2022-09-09T15:58:24.310Z,62.70
2022-09-09T16:00:52.431Z,62.70
2022-09-09T16:03:20.477Z,62.80
2022-09-09T16:05:53.111Z,62.80
2022-09-09T16:08:21.151Z,62.70
2022-09-09T16:10:49.366Z,62.70
2022-09-09T16:13:17.464Z,62.70
2022-09-09T16:15:46.925Z,62.70
2022-09-09T16:18:15.810Z,62.80
2022-09-09T16:20:43.866Z,62.70
2022-09-09T16:23:11.928Z,62.80
2022-09-09T16:25:40.005Z,62.70
2022-09-09T16:28:08.081Z,62.70
2022-09-09T16:30:36.144Z,62.80
2022-09-09T16:33:05.787Z,62.70
2022-09-09T16:35:33.883Z,62.70
2022-09-09T16:38:02.927Z,62.70
2022-09-09T16:40:31.424Z,62.70
2022-09-09T16:42:59.476Z,62.70
2022-09-09T16:45:27.497Z,62.70
2022-09-09T16:47:56.506Z,62.80
2022-09-09T16:50:26.161Z,63.30
2022-09-09T16:52:54.318Z,63.30
2022-09-09T16:55:22.660Z,63.20
2022-09-09T16:57:50.890Z,63.30
2022-09-09T17:00:19.019Z,63.20
2022-09-09T17:02:47.134Z,63.00
2022-09-09T17:05:15.450Z,63.10
2022-09-09T17:07:46.521Z,63.00
2022-09-09T17:10:14.827Z,63.20
2022-09-09T17:12:43.261Z,63.30
2022-09-09T17:15:12.194Z,63.30
2022-09-09T17:17:40.384Z,63.40
2022-09-09T17:20:09.725Z,63.50
2022-09-09T17:22:37.886Z,63.50
2022-09-09T17:25:08.870Z,63.60
2022-09-09T17:27:36.926Z,63.60
2022-09-09T17:30:05.438Z,63.60
2022-09-09T17:32:33.648Z,63.80
2022-09-09T17:35:01.781Z,63.90
2022-09-09T17:37:30.227Z,64.40
2022-09-09T17:39:58.913Z,64.50
2022-09-09T17:42:29.101Z,64.70
2022-09-09T17:44:57.228Z,64.60
2022-09-09T17:47:26.576Z,64.60
2022-09-09T17:49:56.912Z,64.70
2022-09-09T17:52:25.028Z,64.80
2022-09-09T17:54:57.726Z,64.70
2022-09-09T17:57:25.951Z,64.80
2022-09-09T17:59:55.373Z,64.70
2022-09-09T18:02:23.771Z,64.60
2022-09-09T18:04:52.040Z,64.10
2022-09-09T18:07:20.134Z,64.50
2022-09-09T18:09:50.057Z,64.50
2022-09-09T18:12:18.211Z,64.70
2022-09-09T18:14:46.857Z,64.70
2022-09-09T18:17:16.353Z,64.40
2022-09-09T18:19:51.637Z,64.10
2022-09-09T18:22:19.859Z,63.70
2022-09-09T18:24:48.675Z,63.60
2022-09-09T18:27:16.918Z,63.50
2022-09-09T18:29:45.367Z,63.40
2022-09-09T18:32:16.043Z,63.30
2022-09-09T18:34:45.499Z,63.30
2022-09-09T18:37:13.844Z,63.20
2022-09-09T18:39:42.117Z,63.20
2022-09-09T18:42:12.212Z,63.10
2022-09-09T18:44:40.329Z,63.10
2022-09-09T18:47:11.660Z,63.00
2022-09-09T18:49:39.767Z,63.00
2022-09-09T18:52:12.814Z,63.00
2022-09-09T18:54:44.143Z,63.00
2022-09-09T18:57:12.218Z,62.90
2022-09-09T18:59:41.907Z,62.90
2022-09-09T19:02:12.199Z,62.80
2022-09-09T19:04:40.599Z,62.90
2022-09-09T19:07:11.424Z,62.80
2022-09-09T19:09:40.791Z,62.90
2022-09-09T19:12:09.199Z,62.80
2022-09-09T19:14:37.765Z,62.90
2022-09-09T19:17:06.958Z,62.90
2022-09-09T19:19:35.688Z,62.90
2022-09-09T19:22:07.023Z,62.80
2022-09-09T19:24:37.525Z,62.80
2022-09-09T19:27:06.935Z,62.90
2022-09-09T19:29:38.811Z,62.80
2022-09-09T19:34:55.386Z,62.80
2022-09-09T19:37:23.559Z,62.80
2022-09-09T19:39:53.311Z,62.80
2022-09-09T19:42:21.457Z,62.70
2022-09-09T19:44:52.720Z,62.70
2022-09-09T19:47:21.117Z,62.70
2022-09-09T19:49:51.056Z,62.70
2022-09-09T19:52:19.523Z,62.70
2022-09-09T19:54:48.791Z,62.60
2022-09-09T19:57:19.653Z,62.60
2022-09-09T19:59:48.121Z,62.60
2022-09-09T20:02:16.364Z,62.60
2022-09-09T20:04:44.983Z,62.60
2022-09-09T20:07:13.316Z,62.60
2022-09-09T20:09:41.550Z,62.90
2022-09-09T20:12:10.289Z,62.60
2022-09-09T20:14:40.998Z,62.50
2022-09-09T20:17:10.769Z,62.60
2022-09-09T20:19:40.739Z,62.60
2022-09-09T20:22:10.271Z,62.70
2022-09-09T20:24:38.448Z,62.70
2022-09-09T20:27:08.106Z,62.70
2022-09-09T20:29:36.231Z,62.80
2022-09-09T20:32:06.851Z,62.90
2022-09-09T20:34:35.436Z,63.10
2022-09-09T20:37:04.749Z,63.00
2022-09-09T20:39:33.206Z,63.90
2022-09-09T20:42:02.962Z,63.10
2022-09-09T20:44:31.366Z,63.20
2022-09-09T20:47:06.172Z,63.30
2022-09-09T20:49:36.276Z,63.40
2022-09-09T20:52:04.611Z,63.50
2022-09-09T20:54:33.560Z,63.50
2022-09-09T20:57:02.073Z,63.60
2022-09-09T20:59:31.024Z,63.60
2022-09-09T21:02:01.552Z,63.70
2022-09-09T21:04:29.797Z,63.80
2022-09-09T21:06:59.483Z,63.80
2022-09-09T21:09:27.657Z,63.80
2022-09-09T21:11:55.778Z,63.90
2022-09-09T21:14:23.915Z,63.80
2022-09-09T21:16:51.973Z,63.80
2022-09-09T21:19:20.054Z,63.80
2022-09-09T21:21:48.152Z,63.80
2022-09-09T21:24:17.747Z,63.90
2022-09-09T21:26:45.795Z,64.10
2022-09-09T21:29:14.113Z,64.10
2022-09-09T21:31:43.159Z,64.20
2022-09-09T21:34:13.443Z,64.20
2022-09-09T21:36:42.007Z,64.30
2022-09-09T21:39:10.121Z,64.40
2022-09-09T21:41:40.099Z,64.50
2022-09-09T21:44:09.199Z,64.50
2022-09-09T21:46:37.842Z,64.60
2022-09-09T21:49:06.048Z,64.60
2022-09-09T21:51:34.163Z,64.70
2022-09-09T21:54:02.267Z,64.80
2022-09-09T21:56:30.350Z,64.80
2022-09-09T21:59:03.805Z,64.80
2022-09-09T22:01:33.148Z,65.00
2022-09-09T22:04:01.487Z,64.90
2022-09-09T22:06:29.620Z,64.90
2022-09-09T22:08:59.174Z,65.00
2022-09-09T22:11:28.073Z,65.00
2022-09-09T22:13:56.207Z,65.10
2022-09-09T22:16:25.811Z,65.10
2022-09-09T22:18:54.447Z,65.10
2022-09-09T22:21:22.986Z,65.10
2022-09-09T22:23:54.233Z,65.10
2022-09-09T22:26:22.727Z,65.20
2022-09-09T22:28:50.841Z,65.20
2022-09-09T22:31:18.966Z,65.30
2022-09-09T22:33:48.506Z,65.20
2022-09-09T22:36:16.841Z,65.20
2022-09-09T22:38:45.027Z,65.20
2022-09-09T22:41:13.866Z,65.30
2022-09-09T22:43:43.431Z,65.30
2022-09-09T22:46:11.794Z,65.30
2022-09-09T22:48:40.127Z,65.30
2022-09-09T22:51:11.266Z,65.40
2022-09-09T22:53:40.779Z,65.40
2022-09-09T22:56:09.544Z,65.50
2022-09-09T22:58:39.073Z,65.60
2022-09-09T23:01:11.354Z,65.60
2022-09-09T23:03:41.257Z,65.70
2022-09-09T23:06:11.616Z,65.70
2022-09-09T23:08:40.013Z,65.80
2022-09-09T23:11:09.880Z,65.80
2022-09-09T23:13:41.296Z,65.80
2022-09-09T23:16:12.526Z,65.90
2022-09-09T23:18:41.426Z,65.80
2022-09-09T23:21:11.447Z,65.80
2022-09-09T23:23:41.301Z,65.80
2022-09-09T23:26:10.120Z,65.80
2022-09-09T23:28:38.994Z,65.90
2022-09-09T23:31:09.776Z,65.90
2022-09-09T23:33:37.999Z,65.90
2022-09-09T23:36:08.394Z,65.90
2022-09-09T23:38:38.150Z,65.90
2022-09-09T23:41:07.567Z,65.80
2022-09-09T23:43:39.374Z,65.80
2022-09-09T23:46:07.505Z,65.70
2022-09-09T23:48:35.876Z,65.70
2022-09-09T23:51:04.010Z,65.70
2022-09-09T23:53:32.208Z,65.70
2022-09-09T23:56:01.657Z,65.60
2022-09-09T23:58:29.712Z,65.60
